Time;durP1;ratioP1;P1;durP2;ratioP2;P2;SDS_P1;SDS_P2;PMS_P1;PMS_P2;Temp;Humidity;BMP_temperature;BMP_pressure;BME280_temperature;BME280_humidity;BME280_pressure;Samples;Min_cycle;Max_cycle;Signal;HPM_P1;HPM_P2
2020/12/09 00:01:00;;;;;;;7.70;3.50;;;;;;;;;;5049520;28;20227;-74
2020/12/09 00:04:12;;;;;;;7.00;3.33;;;;;;;;;;5052266;28;20353;-73
2020/12/09 00:07:24;;;;;;;6.17;3.13;;;;;;;;;;5051413;28;20206;-73
2020/12/09 00:10:34;;;;;;;8.53;3.40;;;;;;;;;;5057537;28;20210;-73
2020/12/09 00:13:46;;;;;;;7.97;3.27;;;;;;;;;;5052032;28;20222;-73
2020/12/09 00:16:57;;;;;;;7.03;3.53;;;;;;;;;;5046448;28;20254;-73
2020/12/09 00:20:09;;;;;;;8.13;3.67;;;;;;;;;;5050978;28;20254;-73
2020/12/09 00:23:20;;;;;;;10.63;3.80;;;;;;;;;;5055198;28;20607;-72
2020/12/09 00:26:32;;;;;;;5.90;2.87;;;;;;;;;;5057903;28;20238;-74
2020/12/09 00:29:44;;;;;;;10.70;4.77;;;;;;;;;;5056749;28;20226;-73
2020/12/09 00:32:55;;;;;;;8.10;4.00;;;;;;;;;;5056065;28;20718;-74
2020/12/09 00:36:06;;;;;;;11.00;4.33;;;;;;;;;;5064468;28;20246;-73
2020/12/09 00:39:18;;;;;;;10.20;4.80;;;;;;;;;;5060529;28;20213;-72
2020/12/09 00:42:31;;;;;;;9.20;4.57;;;;;;;;;;5053928;28;20586;-73
2020/12/09 00:45:44;;;;;;;7.17;3.77;;;;;;;;;;5052311;28;20260;-73
2020/12/09 00:48:55;;;;;;;7.50;4.00;;;;;;;;;;5049992;28;20595;-73
2020/12/09 00:52:09;;;;;;;9.87;4.00;;;;;;;;;;5042814;28;20203;-73
2020/12/09 00:55:20;;;;;;;8.37;4.20;;;;;;;;;;5043789;28;20211;-73
2020/12/09 00:58:34;;;;;;;9.33;4.17;;;;;;;;;;5045005;28;20643;-73
2020/12/09 01:01:46;;;;;;;7.60;4.13;;;;;;;;;;5049841;28;20242;-73
2020/12/09 01:05:04;;;;;;;10.83;4.87;;;;;;;;;;5046126;28;20635;-73
2020/12/09 01:08:16;;;;;;;30.73;11.37;;;;;;;;;;5046884;28;20606;-73
2020/12/09 01:11:26;;;;;;;19.30;7.40;;;;;;;;;;5047188;28;20261;-73
2020/12/09 01:14:37;;;;;;;11.17;5.37;;;;;;;;;;5047124;28;20221;-73
2020/12/09 01:17:49;;;;;;;8.27;4.63;;;;;;;;;;5051044;28;20234;-74
2020/12/09 01:21:01;;;;;;;10.07;5.13;;;;;;;;;;5051530;28;20292;-73
2020/12/09 01:24:11;;;;;;;16.50;7.10;;;;;;;;;;5051531;28;20284;-74
2020/12/09 01:27:23;;;;;;;12.83;6.33;;;;;;;;;;5053412;28;20839;-74
2020/12/09 01:30:34;;;;;;;9.90;5.83;;;;;;;;;;5048759;28;20210;-73
2020/12/09 01:33:46;;;;;;;11.83;6.07;;;;;;;;;;5050825;28;20843;-72
2020/12/09 01:36:59;;;;;;;12.80;5.97;;;;;;;;;;5044342;28;20242;-72
2020/12/09 01:40:10;;;;;;;11.57;5.60;;;;;;;;;;5045310;28;20234;-72
2020/12/09 01:43:21;;;;;;;10.13;5.53;;;;;;;;;;5052256;28;20276;-72
2020/12/09 01:46:33;;;;;;;10.47;5.97;;;;;;;;;;5056548;28;20199;-72
2020/12/09 01:49:45;;;;;;;11.90;6.63;;;;;;;;;;5055318;28;20250;-72
2020/12/09 01:52:56;;;;;;;13.53;6.07;;;;;;;;;;5053881;28;20288;-73
2020/12/09 01:56:10;;;;;;;12.93;6.70;;;;;;;;;;5053512;28;20203;-73
2020/12/09 01:59:21;;;;;;;13.07;6.77;;;;;;;;;;5053086;28;20215;-73
2020/12/09 02:02:32;;;;;;;13.73;6.87;;;;;;;;;;5052337;28;20238;-73
2020/12/09 02:05:44;;;;;;;12.90;6.33;;;;;;;;;;5052926;28;20261;-73
2020/12/09 02:08:55;;;;;;;12.30;6.30;;;;;;;;;;5054037;28;20223;-74
2020/12/09 02:12:06;;;;;;;12.47;6.67;;;;;;;;;;5046566;28;20203;-73
2020/12/09 02:15:17;;;;;;;14.00;6.63;;;;;;;;;;5053088;28;20249;-73
2020/12/09 02:18:28;;;;;;;12.87;6.50;;;;;;;;;;5047892;28;20253;-73
2020/12/09 02:21:41;;;;;;;10.83;6.17;;;;;;;;;;5065393;28;20207;-73
2020/12/09 02:24:52;;;;;;;12.73;6.93;;;;;;;;;;5065128;28;20211;-73
2020/12/09 02:28:03;;;;;;;14.20;6.80;;;;;;;;;;5058404;28;20210;-73
2020/12/09 02:31:14;;;;;;;12.10;6.57;;;;;;;;;;5039542;28;20203;-73
2020/12/09 02:34:25;;;;;;;14.57;7.20;;;;;;;;;;5046771;28;20376;-74
2020/12/09 02:37:37;;;;;;;13.77;6.93;;;;;;;;;;5046358;28;20226;-73
2020/12/09 02:40:48;;;;;;;13.57;7.33;;;;;;;;;;5050002;28;20199;-73
2020/12/09 02:43:59;;;;;;;16.43;7.83;;;;;;;;;;5049243;28;20266;-73
2020/12/09 02:47:10;;;;;;;19.53;7.83;;;;;;;;;;5050938;28;20291;-73
2020/12/09 02:50:21;;;;;;;14.93;7.43;;;;;;;;;;5050376;28;20234;-73
2020/12/09 02:53:34;;;;;;;17.20;8.13;;;;;;;;;;5050147;28;20223;-72
2020/12/09 02:56:45;;;;;;;15.43;8.27;;;;;;;;;;5050777;28;20206;-73
2020/12/09 02:59:56;;;;;;;16.53;7.57;;;;;;;;;;5049628;28;20280;-73
2020/12/09 03:03:07;;;;;;;17.63;7.67;;;;;;;;;;5054793;28;20235;-73
2020/12/09 03:06:18;;;;;;;22.13;7.87;;;;;;;;;;5052593;28;20342;-73
2020/12/09 03:09:32;;;;;;;19.07;7.93;;;;;;;;;;5053228;28;20222;-72
2020/12/09 03:12:43;;;;;;;17.80;7.87;;;;;;;;;;5043562;28;20239;-73
2020/12/09 03:15:54;;;;;;;17.07;7.93;;;;;;;;;;5052212;28;20844;-72
2020/12/09 03:19:05;;;;;;;15.10;7.97;;;;;;;;;;5055245;28;20560;-72
2020/12/09 03:22:16;;;;;;;17.87;8.63;;;;;;;;;;5050103;28;20210;-73
2020/12/09 03:25:28;;;;;;;14.03;7.80;;;;;;;;;;5052073;28;20250;-73
2020/12/09 03:28:40;;;;;;;17.83;7.83;;;;;;;;;;5052303;28;20370;-73
2020/12/09 03:31:51;;;;;;;18.03;8.07;;;;;;;;;;5052161;28;20463;-73
2020/12/09 03:35:04;;;;;;;18.30;7.90;;;;;;;;;;5045032;28;20627;-73
2020/12/09 03:38:15;;;;;;;19.17;8.17;;;;;;;;;;5046483;28;20720;-73
2020/12/09 03:41:27;;;;;;;23.60;8.57;;;;;;;;;;5051845;28;20227;-73
2020/12/09 03:44:38;;;;;;;20.10;8.33;;;;;;;;;;5048644;28;20237;-73
2020/12/09 03:47:49;;;;;;;22.00;8.50;;;;;;;;;;5051803;28;20211;-73
2020/12/09 03:51:00;;;;;;;16.07;7.83;;;;;;;;;;5051250;28;20291;-73
2020/12/09 03:54:11;;;;;;;19.83;8.47;;;;;;;;;;5052592;28;20230;-73
2020/12/09 03:57:23;;;;;;;19.07;8.70;;;;;;;;;;5051402;28;20657;-73
2020/12/09 04:00:34;;;;;;;18.00;8.57;;;;;;;;;;5052138;28;20199;-73
2020/12/09 04:03:45;;;;;;;17.33;8.43;;;;;;;;;;5066760;28;20245;-73
2020/12/09 04:06:56;;;;;;;19.57;8.40;;;;;;;;;;5070192;28;20213;-74
2020/12/09 04:10:07;;;;;;;17.43;8.87;;;;;;;;;;5055805;28;20252;-74
2020/12/09 04:13:19;;;;;;;21.33;9.23;;;;;;;;;;5055005;28;20358;-73
2020/12/09 04:16:30;;;;;;;18.67;8.77;;;;;;;;;;5051235;28;20256;-73
2020/12/09 04:19:41;;;;;;;19.43;8.67;;;;;;;;;;5048969;28;20690;-73
2020/12/09 04:22:52;;;;;;;19.20;8.00;;;;;;;;;;5050724;28;20239;-73
2020/12/09 04:26:03;;;;;;;20.97;8.87;;;;;;;;;;5053206;28;20199;-74
2020/12/09 04:29:15;;;;;;;19.63;8.97;;;;;;;;;;5050440;28;20230;-74
2020/12/09 04:32:26;;;;;;;16.70;8.70;;;;;;;;;;5050648;28;20206;-74
2020/12/09 04:35:37;;;;;;;22.73;9.50;;;;;;;;;;5050573;28;20242;-73
2020/12/09 04:38:48;;;;;;;20.00;8.87;;;;;;;;;;5050465;28;20211;-74
2020/12/09 04:41:59;;;;;;;22.87;10.27;;;;;;;;;;5051212;28;20230;-73
2020/12/09 04:45:12;;;;;;;22.27;9.80;;;;;;;;;;5050551;28;20272;-73
2020/12/09 04:48:25;;;;;;;23.80;11.03;;;;;;;;;;5046516;28;20230;-73
2020/12/09 04:52:00;;;;;;;25.00;11.20;;;;;;;;;;5046082;28;20203;-74
2020/12/09 04:55:12;;;;;;;23.40;11.43;;;;;;;;;;5051723;28;20223;-74
2020/12/09 04:58:30;;;;;;;28.20;11.30;;;;;;;;;;5048666;28;20219;-74
2020/12/09 05:01:56;;;;;;;27.87;11.90;;;;;;;;;;5050390;28;20219;-74
2020/12/09 05:05:07;;;;;;;26.80;11.73;;;;;;;;;;5049778;28;20231;-73
2020/12/09 05:08:22;;;;;;;25.90;11.27;;;;;;;;;;5045306;28;20210;-74
2020/12/09 05:11:33;;;;;;;29.53;11.77;;;;;;;;;;5049743;28;20694;-73
2020/12/09 05:14:47;;;;;;;27.33;12.27;;;;;;;;;;5050781;28;20260;-73
2020/12/09 05:18:09;;;;;;;28.53;12.20;;;;;;;;;;5054293;28;20241;-73
2020/12/09 05:21:22;;;;;;;28.27;13.03;;;;;;;;;;5054260;28;20206;-74
2020/12/09 05:24:34;;;;;;;24.00;11.93;;;;;;;;;;5054342;28;20227;-73
2020/12/09 05:27:45;;;;;;;32.63;13.37;;;;;;;;;;5072676;28;20202;-73
2020/12/09 05:30:56;;;;;;;26.07;12.10;;;;;;;;;;5052908;28;20238;-74
2020/12/09 05:34:26;;;;;;;24.53;11.63;;;;;;;;;;5050205;28;20246;-73
2020/12/09 05:37:38;;;;;;;29.87;12.43;;;;;;;;;;5053388;28;20203;-73
2020/12/09 05:40:49;;;;;;;32.63;14.30;;;;;;;;;;5050285;28;20674;-73
2020/12/09 05:44:01;;;;;;;31.77;13.03;;;;;;;;;;5053477;28;20242;-74
2020/12/09 05:47:13;;;;;;;36.20;14.83;;;;;;;;;;5052875;28;20215;-73
2020/12/09 05:50:24;;;;;;;30.97;14.03;;;;;;;;;;5048025;28;20280;-73
2020/12/09 05:53:36;;;;;;;37.67;15.47;;;;;;;;;;5063656;28;20249;-73
2020/12/09 05:56:51;;;;;;;28.80;13.47;;;;;;;;;;5054475;28;20203;-72
2020/12/09 06:00:02;;;;;;;35.30;14.53;;;;;;;;;;5055846;28;20345;-73
2020/12/09 06:03:24;;;;;;;34.37;13.93;;;;;;;;;;5047392;28;20246;-73
2020/12/09 06:06:35;;;;;;;39.17;14.87;;;;;;;;;;5048010;28;20249;-73
2020/12/09 06:10:05;;;;;;;36.63;14.97;;;;;;;;;;5049052;28;20722;-73
2020/12/09 06:13:17;;;;;;;35.50;14.50;;;;;;;;;;5055164;28;20275;-74
2020/12/09 06:16:28;;;;;;;38.03;15.83;;;;;;;;;;5054477;28;20222;-73
2020/12/09 06:19:40;;;;;;;36.63;15.47;;;;;;;;;;5052619;28;20203;-74
2020/12/09 06:22:52;;;;;;;38.90;15.50;;;;;;;;;;5055768;28;20231;-72
2020/12/09 06:26:03;;;;;;;41.70;15.50;;;;;;;;;;5052577;28;20268;-73
2020/12/09 06:29:21;;;;;;;36.73;14.80;;;;;;;;;;5049517;28;20222;-73
2020/12/09 06:32:45;;;;;;;36.90;15.10;;;;;;;;;;5054216;28;20285;-74
2020/12/09 06:36:19;;;;;;;36.83;15.43;;;;;;;;;;5053716;28;20238;-73
2020/12/09 06:39:30;;;;;;;38.43;15.33;;;;;;;;;;5052111;28;20210;-76
2020/12/09 06:42:41;;;;;;;38.70;16.30;;;;;;;;;;5051113;28;20234;-75
2020/12/09 06:45:53;;;;;;;38.17;15.67;;;;;;;;;;5051021;28;20265;-75
2020/12/09 06:49:04;;;;;;;35.87;15.33;;;;;;;;;;5052837;28;20309;-75
2020/12/09 06:52:32;;;;;;;35.37;14.97;;;;;;;;;;5054498;28;20202;-75
2020/12/09 06:55:44;;;;;;;39.33;15.17;;;;;;;;;;5062107;28;20273;-75
2020/12/09 06:59:15;;;;;;;34.83;14.83;;;;;;;;;;5054128;28;20215;-76
2020/12/09 07:02:28;;;;;;;35.37;15.23;;;;;;;;;;5053038;28;20218;-75
2020/12/09 07:05:39;;;;;;;37.50;16.00;;;;;;;;;;5053249;28;20223;-75
2020/12/09 07:08:51;;;;;;;35.77;15.87;;;;;;;;;;5050734;28;20764;-76
2020/12/09 07:12:02;;;;;;;36.97;15.17;;;;;;;;;;5052150;28;20235;-76
2020/12/09 07:15:14;;;;;;;39.93;16.83;;;;;;;;;;5046753;28;20674;-75
2020/12/09 07:18:26;;;;;;;40.67;16.37;;;;;;;;;;5050314;28;20713;-76
2020/12/09 07:21:37;;;;;;;41.80;17.17;;;;;;;;;;5049775;28;20195;-76
2020/12/09 07:24:48;;;;;;;40.13;17.43;;;;;;;;;;5053075;28;20245;-73
2020/12/09 07:28:00;;;;;;;39.60;16.50;;;;;;;;;;5073569;28;20203;-72
2020/12/09 07:31:11;;;;;;;39.00;16.10;;;;;;;;;;5075854;28;20285;-72
2020/12/09 07:34:23;;;;;;;40.67;17.23;;;;;;;;;;5067829;28;20702;-75
2020/12/09 07:37:37;;;;;;;40.73;16.97;;;;;;;;;;5043478;28;20207;-75
2020/12/09 07:40:48;;;;;;;43.47;19.00;;;;;;;;;;5052194;28;20195;-75
2020/12/09 07:43:59;;;;;;;47.00;19.40;;;;;;;;;;5052487;28;20227;-75
2020/12/09 07:47:11;;;;;;;45.57;18.77;;;;;;;;;;5054575;28;20214;-74
2020/12/09 07:50:23;;;;;;;44.87;18.10;;;;;;;;;;5051487;28;20268;-75
2020/12/09 07:53:34;;;;;;;45.63;18.43;;;;;;;;;;5051909;28;20791;-75
2020/12/09 07:56:45;;;;;;;49.23;18.73;;;;;;;;;;5049020;28;20245;-75
2020/12/09 07:59:59;;;;;;;41.43;16.63;;;;;;;;;;5059278;28;20214;-74
2020/12/09 08:03:17;;;;;;;52.03;22.60;;;;;;;;;;5049978;28;20231;-75
2020/12/09 08:06:29;;;;;;;50.47;20.73;;;;;;;;;;5050837;28;20222;-75
2020/12/09 08:09:40;;;;;;;44.83;19.17;;;;;;;;;;5051889;28;20577;-75
2020/12/09 08:12:51;;;;;;;43.53;17.33;;;;;;;;;;5049935;28;20654;-75
2020/12/09 08:16:02;;;;;;;45.33;18.33;;;;;;;;;;5053065;28;20252;-75
2020/12/09 08:19:13;;;;;;;43.47;18.60;;;;;;;;;;5052200;28;20215;-75
2020/12/09 08:22:25;;;;;;;50.17;19.50;;;;;;;;;;5052115;28;20254;-76
2020/12/09 08:25:44;;;;;;;46.73;18.13;;;;;;;;;;5051579;28;20253;-76
2020/12/09 08:28:55;;;;;;;48.63;18.73;;;;;;;;;;5054890;28;20621;-76
2020/12/09 08:32:09;;;;;;;42.17;18.10;;;;;;;;;;5048947;28;20220;-77
2020/12/09 08:35:20;;;;;;;54.03;19.40;;;;;;;;;;5054829;28;20210;-75
2020/12/09 08:38:34;;;;;;;52.20;21.43;;;;;;;;;;5050497;28;20203;-77
2020/12/09 08:41:47;;;;;;;51.40;20.70;;;;;;;;;;5064070;28;20220;-75
2020/12/09 08:44:58;;;;;;;46.93;19.87;;;;;;;;;;5060333;28;20253;-74
2020/12/09 08:48:09;;;;;;;51.63;20.57;;;;;;;;;;5050483;28;20214;-74
2020/12/09 08:51:23;;;;;;;44.00;18.37;;;;;;;;;;5050005;28;20289;-75
2020/12/09 08:54:35;;;;;;;48.20;19.47;;;;;;;;;;5046908;28;20716;-75
2020/12/09 08:57:46;;;;;;;46.60;19.27;;;;;;;;;;5051473;28;20214;-76
2020/12/09 09:00:57;;;;;;;45.93;18.50;;;;;;;;;;5047952;28;20256;-76
2020/12/09 09:04:14;;;;;;;47.60;18.67;;;;;;;;;;5048566;28;20231;-76
2020/12/09 09:07:25;;;;;;;45.30;18.37;;;;;;;;;;5051692;28;20211;-76
2020/12/09 09:10:38;;;;;;;41.63;18.03;;;;;;;;;;5073944;28;20235;-74
2020/12/09 09:13:49;;;;;;;46.67;18.40;;;;;;;;;;5073362;28;20230;-72
2020/12/09 09:17:01;;;;;;;51.87;19.47;;;;;;;;;;5058861;28;20203;-76
2020/12/09 09:20:12;;;;;;;48.03;17.87;;;;;;;;;;5058156;28;20214;-76
2020/12/09 09:23:23;;;;;;;47.73;19.50;;;;;;;;;;5047554;28;20730;-76
2020/12/09 09:26:35;;;;;;;51.63;19.50;;;;;;;;;;5047548;28;20206;-76
2020/12/09 09:29:46;;;;;;;45.10;18.83;;;;;;;;;;5047445;28;20219;-74
2020/12/09 09:32:58;;;;;;;47.20;20.00;;;;;;;;;;5057767;28;20552;-76
2020/12/09 09:36:09;;;;;;;46.83;18.93;;;;;;;;;;5054604;28;20218;-75
2020/12/09 09:39:20;;;;;;;49.43;19.67;;;;;;;;;;5047111;28;20591;-76
2020/12/09 09:42:32;;;;;;;47.63;19.53;;;;;;;;;;5048614;28;20196;-74
2020/12/09 09:45:43;;;;;;;49.93;20.10;;;;;;;;;;5048642;28;20278;-75
2020/12/09 09:48:54;;;;;;;50.47;20.67;;;;;;;;;;5050338;28;20238;-75
2020/12/09 09:52:05;;;;;;;45.10;20.13;;;;;;;;;;5049998;28;20253;-75
2020/12/09 09:55:17;;;;;;;44.87;19.43;;;;;;;;;;5052151;28;20318;-76
2020/12/09 09:58:29;;;;;;;46.23;18.47;;;;;;;;;;5053785;28;20253;-76
2020/12/09 10:01:43;;;;;;;48.27;20.77;;;;;;;;;;5054071;28;20223;-76
2020/12/09 10:05:08;;;;;;;45.50;19.40;;;;;;;;;;5054261;28;20210;-76
2020/12/09 10:08:24;;;;;;;56.77;21.60;;;;;;;;;;5054581;28;20206;-76
2020/12/09 10:11:49;;;;;;;54.10;21.63;;;;;;;;;;5053071;28;20265;-76
2020/12/09 10:15:07;;;;;;;56.03;20.93;;;;;;;;;;5052344;28;20214;-77
2020/12/09 10:18:18;;;;;;;47.47;20.93;;;;;;;;;;5057070;28;20242;-76
2020/12/09 10:21:30;;;;;;;47.50;20.50;;;;;;;;;;5055084;28;20338;-74
2020/12/09 10:24:41;;;;;;;49.30;19.40;;;;;;;;;;5057667;28;20214;-75
2020/12/09 10:27:53;;;;;;;49.97;19.70;;;;;;;;;;5055540;28;20261;-76
2020/12/09 10:31:05;;;;;;;55.07;21.57;;;;;;;;;;5034819;28;20362;-76
2020/12/09 10:34:18;;;;;;;49.37;21.47;;;;;;;;;;5051564;28;20322;-75
2020/12/09 10:37:29;;;;;;;54.23;20.93;;;;;;;;;;5054026;28;20329;-76
2020/12/09 10:40:40;;;;;;;47.40;19.37;;;;;;;;;;5053591;28;20195;-76
2020/12/09 10:43:52;;;;;;;51.63;20.13;;;;;;;;;;5061423;28;20230;-75
2020/12/09 10:47:06;;;;;;;51.87;19.83;;;;;;;;;;5052868;28;20261;-75
2020/12/09 10:50:17;;;;;;;45.60;19.80;;;;;;;;;;5053509;28;20269;-76
2020/12/09 10:53:29;;;;;;;49.63;19.23;;;;;;;;;;5077144;28;20307;-74
2020/12/09 10:56:40;;;;;;;56.67;20.63;;;;;;;;;;5075608;28;20195;-75
2020/12/09 10:59:52;;;;;;;55.80;21.23;;;;;;;;;;5059070;28;20743;-76
2020/12/09 11:03:04;;;;;;;51.57;20.10;;;;;;;;;;5056655;28;20284;-75
2020/12/09 11:06:16;;;;;;;46.53;19.37;;;;;;;;;;5056151;28;20301;-76
2020/12/09 11:09:27;;;;;;;51.93;20.73;;;;;;;;;;5058700;28;20750;-77
2020/12/09 11:12:40;;;;;;;54.43;22.07;;;;;;;;;;5050445;28;20246;-75
2020/12/09 11:15:51;;;;;;;50.67;20.20;;;;;;;;;;5049021;28;20210;-75
2020/12/09 11:19:03;;;;;;;53.13;21.57;;;;;;;;;;5049768;28;20211;-75
2020/12/09 11:22:14;;;;;;;52.00;20.97;;;;;;;;;;5049284;28;20207;-75
2020/12/09 11:25:25;;;;;;;52.40;20.13;;;;;;;;;;5052563;28;20726;-73
2020/12/09 11:28:37;;;;;;;50.50;19.93;;;;;;;;;;5050131;28;20336;-75
2020/12/09 11:31:48;;;;;;;55.20;20.13;;;;;;;;;;5047272;28;20729;-75
2020/12/09 11:35:00;;;;;;;50.13;20.57;;;;;;;;;;5053374;28;20724;-75
2020/12/09 11:38:11;;;;;;;49.93;20.10;;;;;;;;;;5046545;28;20214;-75
2020/12/09 11:41:26;;;;;;;46.33;18.50;;;;;;;;;;5052336;28;20215;-74
2020/12/09 11:44:37;;;;;;;48.13;19.77;;;;;;;;;;5052192;28;20300;-74
2020/12/09 11:47:48;;;;;;;48.27;19.33;;;;;;;;;;5052101;28;20224;-74
2020/12/09 11:51:00;;;;;;;49.47;19.63;;;;;;;;;;5053272;28;20235;-74
2020/12/09 11:54:11;;;;;;;46.17;19.47;;;;;;;;;;5045672;28;20223;-74
2020/12/09 11:57:22;;;;;;;48.67;19.37;;;;;;;;;;5055047;28;20219;-74
2020/12/09 12:00:33;;;;;;;49.40;20.53;;;;;;;;;;5052375;28;20345;-74
2020/12/09 12:03:47;;;;;;;50.27;20.37;;;;;;;;;;5055898;28;20365;-74
2020/12/09 12:06:59;;;;;;;51.10;20.50;;;;;;;;;;5048744;28;20216;-74
2020/12/09 12:10:10;;;;;;;46.47;19.43;;;;;;;;;;5049301;28;20218;-74
2020/12/09 12:13:22;;;;;;;42.77;18.57;;;;;;;;;;5059440;28;20239;-74
2020/12/09 12:16:34;;;;;;;49.40;19.47;;;;;;;;;;5047600;28;20219;-75
2020/12/09 12:19:45;;;;;;;48.80;19.07;;;;;;;;;;5045567;28;20226;-75
2020/12/09 12:22:57;;;;;;;52.50;20.30;;;;;;;;;;5045476;28;20233;-74
2020/12/09 12:26:09;;;;;;;46.53;18.73;;;;;;;;;;5049270;28;20653;-74
2020/12/09 12:29:20;;;;;;;49.67;19.17;;;;;;;;;;5049413;28;20206;-73
2020/12/09 12:32:31;;;;;;;47.70;19.90;;;;;;;;;;5049797;28;20954;-73
2020/12/09 12:35:43;;;;;;;47.73;18.77;;;;;;;;;;5046773;28;20225;-74
2020/12/09 12:38:56;;;;;;;45.83;17.87;;;;;;;;;;5050629;28;20225;-73
2020/12/09 12:42:07;;;;;;;44.10;18.07;;;;;;;;;;5046689;28;20326;-74
2020/12/09 12:45:21;;;;;;;42.27;18.00;;;;;;;;;;5052031;28;20227;-74
2020/12/09 12:48:32;;;;;;;42.47;18.33;;;;;;;;;;5049794;28;20219;-73
2020/12/09 12:51:43;;;;;;;45.23;18.17;;;;;;;;;;5050824;28;20493;-75
2020/12/09 12:54:55;;;;;;;47.93;18.87;;;;;;;;;;5051277;28;20235;-74
2020/12/09 12:58:06;;;;;;;49.03;19.90;;;;;;;;;;5054494;28;20294;-73
2020/12/09 13:01:18;;;;;;;43.00;18.03;;;;;;;;;;5045195;28;20260;-74
2020/12/09 13:04:29;;;;;;;49.70;19.93;;;;;;;;;;5051741;28;20239;-74
2020/12/09 13:07:42;;;;;;;51.50;21.40;;;;;;;;;;5040680;28;20241;-74
2020/12/09 13:10:55;;;;;;;49.73;20.03;;;;;;;;;;5050382;28;20277;-74
2020/12/09 13:14:06;;;;;;;45.13;18.60;;;;;;;;;;5041701;28;20259;-72
2020/12/09 13:17:19;;;;;;;40.40;17.47;;;;;;;;;;5048650;28;20242;-73
2020/12/09 13:20:30;;;;;;;38.50;17.53;;;;;;;;;;5049591;28;20226;-73
2020/12/09 13:23:41;;;;;;;42.33;18.10;;;;;;;;;;5051541;28;20230;-71
2020/12/09 13:26:53;;;;;;;41.43;16.93;;;;;;;;;;5048940;28;20227;-73
2020/12/09 13:30:05;;;;;;;42.00;17.97;;;;;;;;;;5044773;28;20730;-73
2020/12/09 13:33:16;;;;;;;43.97;18.07;;;;;;;;;;5050257;28;20277;-72
2020/12/09 13:36:27;;;;;;;41.00;18.00;;;;;;;;;;5052108;28;20261;-73
2020/12/09 13:39:40;;;;;;;40.63;18.10;;;;;;;;;;5050255;28;20214;-72
2020/12/09 13:42:53;;;;;;;42.90;18.60;;;;;;;;;;5058463;28;20230;-73
2020/12/09 13:46:04;;;;;;;41.37;18.13;;;;;;;;;;5043099;28;20582;-71
2020/12/09 13:49:15;;;;;;;46.87;18.33;;;;;;;;;;5053848;28;20215;-72
2020/12/09 13:52:26;;;;;;;43.37;17.80;;;;;;;;;;5054127;28;20199;-71
2020/12/09 13:55:37;;;;;;;46.10;18.17;;;;;;;;;;5054187;28;20199;-72
2020/12/09 13:58:50;;;;;;;44.47;18.57;;;;;;;;;;5056082;28;20238;-72
2020/12/09 14:02:01;;;;;;;48.93;21.03;;;;;;;;;;5058106;28;20215;-73
2020/12/09 14:05:14;;;;;;;43.80;18.13;;;;;;;;;;5059251;28;20219;-72
2020/12/09 14:08:25;;;;;;;54.67;19.37;;;;;;;;;;5053867;28;20242;-71
2020/12/09 14:11:36;;;;;;;46.70;19.17;;;;;;;;;;5056338;28;20227;-71
2020/12/09 14:14:50;;;;;;;47.63;20.00;;;;;;;;;;5051161;28;20287;-72
2020/12/09 14:18:01;;;;;;;44.80;18.43;;;;;;;;;;5062981;28;20203;-73
2020/12/09 14:21:13;;;;;;;52.87;18.03;;;;;;;;;;5067237;28;20198;-74
2020/12/09 14:24:26;;;;;;;42.57;18.77;;;;;;;;;;5074410;28;20311;-72
2020/12/09 14:27:38;;;;;;;45.10;19.07;;;;;;;;;;5055496;28;20219;-72
2020/12/09 14:30:50;;;;;;;46.17;17.97;;;;;;;;;;5051095;28;20270;-72
2020/12/09 14:34:01;;;;;;;71.13;29.80;;;;;;;;;;5042581;28;20243;-74
2020/12/09 14:37:12;;;;;;;51.30;20.00;;;;;;;;;;5058034;28;20229;-73
2020/12/09 14:40:23;;;;;;;45.10;19.13;;;;;;;;;;5052886;28;20681;-73
2020/12/09 14:43:34;;;;;;;48.27;19.67;;;;;;;;;;5053364;28;20655;-73
2020/12/09 14:46:46;;;;;;;47.60;20.90;;;;;;;;;;5046692;28;20732;-73
2020/12/09 14:49:57;;;;;;;51.17;21.20;;;;;;;;;;5048173;28;20356;-73
2020/12/09 14:53:08;;;;;;;52.07;21.13;;;;;;;;;;5047129;28;20323;-73
2020/12/09 14:56:19;;;;;;;48.03;19.77;;;;;;;;;;5051366;28;20686;-74
2020/12/09 14:59:30;;;;;;;48.53;19.53;;;;;;;;;;5035357;28;20196;-73
2020/12/09 15:02:44;;;;;;;46.90;19.07;;;;;;;;;;5042666;28;20234;-73
2020/12/09 15:05:55;;;;;;;45.67;19.03;;;;;;;;;;5047691;28;20373;-74
2020/12/09 15:09:06;;;;;;;42.93;17.87;;;;;;;;;;5052441;28;20304;-73
2020/12/09 15:12:21;;;;;;;41.57;18.03;;;;;;;;;;5054987;28;20614;-73
2020/12/09 15:15:32;;;;;;;46.83;20.40;;;;;;;;;;5043189;28;20224;-72
2020/12/09 15:18:45;;;;;;;43.07;18.87;;;;;;;;;;5048750;28;20667;-74
2020/12/09 15:21:59;;;;;;;43.80;18.93;;;;;;;;;;5053685;28;20206;-73
2020/12/09 15:25:11;;;;;;;45.40;19.50;;;;;;;;;;5050598;28;20223;-73
2020/12/09 15:28:22;;;;;;;42.40;18.70;;;;;;;;;;5047483;28;20840;-73
2020/12/09 15:31:33;;;;;;;44.50;18.93;;;;;;;;;;5052438;28;20589;-73
2020/12/09 15:34:45;;;;;;;45.03;18.70;;;;;;;;;;5046423;28;20203;-73
2020/12/09 15:37:56;;;;;;;40.77;17.73;;;;;;;;;;5051588;28;20238;-73
2020/12/09 15:41:09;;;;;;;41.83;17.53;;;;;;;;;;5050449;28;20191;-73
2020/12/09 15:44:20;;;;;;;42.63;18.00;;;;;;;;;;5049995;28;20314;-73
2020/12/09 15:47:39;;;;;;;41.33;17.97;;;;;;;;;;5053061;28;20338;-73
2020/12/09 15:50:51;;;;;;;44.70;18.67;;;;;;;;;;5046842;28;20251;-73
2020/12/09 15:54:02;;;;;;;37.57;16.70;;;;;;;;;;5050989;28;20280;-74
2020/12/09 15:57:13;;;;;;;37.13;16.00;;;;;;;;;;5055899;28;20203;-74
2020/12/09 16:00:24;;;;;;;36.80;16.07;;;;;;;;;;5050350;28;20211;-73
2020/12/09 16:03:35;;;;;;;43.03;19.43;;;;;;;;;;5071989;28;20217;-73
2020/12/09 16:06:49;;;;;;;43.10;19.67;;;;;;;;;;5074329;28;20207;-74
2020/12/09 16:10:01;;;;;;;43.77;18.00;;;;;;;;;;5052336;28;20211;-73
2020/12/09 16:13:12;;;;;;;45.07;19.10;;;;;;;;;;5045975;28;20608;-73
2020/12/09 16:16:23;;;;;;;43.77;18.77;;;;;;;;;;5041472;28;20679;-74
2020/12/09 16:19:34;;;;;;;42.27;19.10;;;;;;;;;;5040332;28;20248;-73
2020/12/09 16:22:46;;;;;;;44.90;19.13;;;;;;;;;;5050704;28;20358;-74
2020/12/09 16:25:57;;;;;;;45.60;19.40;;;;;;;;;;5049245;28;20678;-73
2020/12/09 16:29:08;;;;;;;49.50;21.10;;;;;;;;;;5050846;28;20231;-73
2020/12/09 16:32:20;;;;;;;47.97;20.27;;;;;;;;;;5056614;28;20357;-74
2020/12/09 16:35:31;;;;;;;45.27;19.43;;;;;;;;;;5052236;28;20283;-73
2020/12/09 16:38:44;;;;;;;49.63;19.67;;;;;;;;;;5048789;28;20210;-74
2020/12/09 16:41:55;;;;;;;42.47;18.50;;;;;;;;;;5052943;28;20218;-73
2020/12/09 16:45:06;;;;;;;46.83;18.63;;;;;;;;;;5049085;28;20669;-73
2020/12/09 16:48:17;;;;;;;43.63;18.23;;;;;;;;;;5052598;28;20210;-72
2020/12/09 16:51:28;;;;;;;43.03;18.03;;;;;;;;;;5051725;28;20238;-73
2020/12/09 16:54:40;;;;;;;38.20;16.50;;;;;;;;;;5050290;28;20214;-74
2020/12/09 16:57:51;;;;;;;36.27;15.83;;;;;;;;;;5050559;28;20199;-73
2020/12/09 17:01:02;;;;;;;36.07;15.53;;;;;;;;;;5049213;28;20585;-73
2020/12/09 17:04:14;;;;;;;39.27;16.90;;;;;;;;;;5050898;28;20684;-73
2020/12/09 17:07:26;;;;;;;37.97;16.60;;;;;;;;;;5051254;28;20261;-73
2020/12/09 17:10:38;;;;;;;34.87;15.70;;;;;;;;;;5047438;28;20215;-73
2020/12/09 17:13:49;;;;;;;38.13;16.30;;;;;;;;;;5055376;28;20272;-72
2020/12/09 17:17:00;;;;;;;35.00;15.23;;;;;;;;;;5060046;28;20935;-72
2020/12/09 17:20:11;;;;;;;37.60;16.13;;;;;;;;;;5057971;28;20218;-72
2020/12/09 17:23:22;;;;;;;38.07;16.03;;;;;;;;;;5058367;28;20233;-72
2020/12/09 17:26:34;;;;;;;36.47;15.73;;;;;;;;;;5052744;28;20207;-72
2020/12/09 17:29:46;;;;;;;36.87;16.47;;;;;;;;;;5048042;28;20215;-72
2020/12/09 17:32:57;;;;;;;40.37;18.87;;;;;;;;;;5056159;28;20718;-72
2020/12/09 17:36:08;;;;;;;46.93;19.10;;;;;;;;;;5052492;28;20211;-73
2020/12/09 17:39:19;;;;;;;35.47;15.40;;;;;;;;;;5056255;28;20583;-73
2020/12/09 17:42:31;;;;;;;36.70;15.77;;;;;;;;;;5056567;28;20211;-73
2020/12/09 17:45:42;;;;;;;43.33;16.73;;;;;;;;;;5074566;28;20190;-74
2020/12/09 17:48:54;;;;;;;39.17;16.17;;;;;;;;;;5076271;28;20199;-74
2020/12/09 17:52:08;;;;;;;36.53;15.73;;;;;;;;;;5071696;28;20223;-74
2020/12/09 17:55:19;;;;;;;35.90;15.63;;;;;;;;;;5054109;28;20211;-74
2020/12/09 17:58:31;;;;;;;41.53;16.27;;;;;;;;;;5050505;28;20215;-73
2020/12/09 18:01:43;;;;;;;38.60;16.17;;;;;;;;;;5050261;28;20229;-73
2020/12/09 18:04:54;;;;;;;36.17;15.07;;;;;;;;;;5054450;28;20265;-74
2020/12/09 18:08:07;;;;;;;38.73;15.80;;;;;;;;;;5055118;28;20260;-73
2020/12/09 18:11:20;;;;;;;37.93;16.50;;;;;;;;;;5053494;28;20722;-74
2020/12/09 18:14:33;;;;;;;39.83;16.47;;;;;;;;;;5052602;28;20235;-73
2020/12/09 18:17:44;;;;;;;45.60;16.63;;;;;;;;;;5054571;28;20195;-74
2020/12/09 18:20:55;;;;;;;42.83;16.60;;;;;;;;;;5053968;28;20597;-74
2020/12/09 18:24:07;;;;;;;47.50;17.70;;;;;;;;;;5053595;28;20226;-74
2020/12/09 18:27:18;;;;;;;41.13;16.47;;;;;;;;;;5049921;28;20272;-74
2020/12/09 18:30:30;;;;;;;46.93;16.97;;;;;;;;;;5052643;28;20238;-74
2020/12/09 18:33:41;;;;;;;44.33;17.40;;;;;;;;;;5048557;28;20230;-73
2020/12/09 18:36:54;;;;;;;47.80;19.00;;;;;;;;;;5055252;28;20211;-74
2020/12/09 18:40:05;;;;;;;42.27;17.10;;;;;;;;;;5055374;28;20207;-75
2020/12/09 18:43:17;;;;;;;39.03;16.50;;;;;;;;;;5049140;28;20772;-72